createdAt,value
2023-03-11T00:00:58.105Z,82.03
2023-03-11T00:01:58.092Z,83.06
2023-03-11T00:03:48.917Z,82.96
2023-03-11T00:04:48.927Z,83.58
2023-03-11T00:05:48.920Z,83.58
2023-03-11T00:06:48.903Z,81.81
2023-03-11T00:07:48.894Z,82.13
2023-03-11T00:08:48.885Z,82.65
2023-03-11T00:09:48.881Z,83.00
2023-03-11T00:10:48.882Z,81.81
2023-03-11T00:11:48.850Z,82.44
2023-03-11T00:12:48.854Z,82.86
2023-03-11T00:13:48.851Z,84.00
2023-03-11T00:14:48.826Z,83.90
2023-03-11T00:15:48.825Z,83.03
2023-03-11T00:16:48.861Z,83.27
2023-03-11T00:17:48.801Z,83.80
2023-03-11T00:18:48.784Z,83.27
2023-03-11T00:19:48.788Z,83.69
2023-03-11T00:20:48.782Z,83.37
2023-03-11T00:21:48.750Z,83.06
2023-03-11T00:22:48.738Z,83.58
2023-03-11T00:23:48.733Z,83.37
2023-03-11T00:24:48.724Z,83.48
2023-03-11T00:25:48.714Z,83.48
2023-03-11T00:26:48.702Z,83.06
2023-03-11T00:27:48.700Z,83.27
2023-03-11T00:28:48.693Z,82.96
2023-03-11T00:29:48.697Z,83.58
2023-03-11T00:30:48.752Z,82.75
2023-03-11T00:31:48.647Z,83.37
2023-03-11T00:32:48.673Z,83.17
2023-03-11T00:33:48.622Z,82.44
2023-03-11T00:34:48.627Z,82.54
2023-03-11T00:35:48.611Z,81.85
2023-03-11T00:36:48.605Z,83.58
2023-03-11T00:37:48.579Z,82.17
2023-03-11T00:38:48.645Z,81.92
2023-03-11T00:39:48.560Z,82.86
2023-03-11T00:40:48.557Z,82.48
2023-03-11T00:41:48.558Z,83.27
2023-03-11T00:42:48.540Z,83.17
2023-03-11T00:43:48.520Z,81.60
2023-03-11T00:44:48.525Z,81.33
2023-03-11T00:45:48.527Z,81.96
2023-03-11T00:46:48.503Z,80.19
2023-03-11T00:47:48.475Z,79.73
2023-03-11T00:48:48.477Z,81.50
2023-03-11T00:49:48.454Z,81.19
2023-03-11T00:50:48.442Z,81.81
2023-03-11T00:51:48.445Z,81.19
2023-03-11T00:52:48.445Z,81.29
2023-03-11T00:53:48.408Z,81.40
2023-03-11T00:54:48.407Z,81.71
2023-03-11T00:55:48.389Z,81.50
2023-03-11T00:56:48.390Z,80.67
2023-03-11T00:57:48.380Z,81.19
2023-03-11T00:58:48.371Z,81.29
2023-03-11T00:59:48.351Z,81.71
2023-03-11T01:00:48.341Z,81.19
2023-03-11T01:01:48.332Z,81.50
2023-03-11T01:02:48.322Z,81.71
2023-03-11T01:03:48.314Z,81.81
2023-03-11T01:04:48.363Z,80.77
2023-03-11T01:05:48.289Z,81.09
2023-03-11T01:06:48.282Z,82.06
2023-03-11T01:07:48.262Z,81.09
2023-03-11T01:08:48.262Z,80.98
2023-03-11T01:09:48.244Z,81.29
2023-03-11T01:10:48.232Z,81.92
2023-03-11T01:11:48.231Z,81.09
2023-03-11T01:12:48.217Z,81.60
2023-03-11T01:13:48.195Z,81.29
2023-03-11T01:14:48.189Z,81.40
2023-03-11T01:15:48.179Z,81.02
2023-03-11T01:16:48.181Z,82.06
2023-03-11T01:17:48.155Z,81.12
2023-03-11T01:18:48.146Z,81.02
2023-03-11T01:19:48.134Z,81.43
2023-03-11T01:20:48.201Z,81.09
2023-03-11T01:21:48.124Z,81.71
2023-03-11T01:22:48.106Z,81.09
2023-03-11T01:23:48.088Z,81.60
2023-03-11T01:24:48.087Z,82.86
2023-03-11T01:25:48.075Z,82.48
2023-03-11T01:26:48.113Z,81.54
2023-03-11T01:27:48.085Z,81.12
2023-03-11T01:28:48.053Z,83.06
2023-03-11T01:29:48.025Z,82.75
2023-03-11T01:30:48.053Z,82.44
2023-03-11T01:31:48.024Z,83.17
2023-03-11T01:32:48.017Z,83.06
2023-03-11T01:33:47.993Z,81.96
2023-03-11T01:34:47.974Z,81.33
2023-03-11T01:35:47.981Z,82.06
2023-03-11T01:36:47.978Z,81.54
2023-03-11T01:37:47.956Z,81.81
2023-03-11T01:38:47.943Z,83.10
2023-03-11T01:39:47.925Z,83.10
2023-03-11T01:40:47.920Z,82.27
2023-03-11T01:41:47.932Z,81.92
2023-03-11T01:42:47.891Z,81.43
2023-03-11T01:43:47.892Z,81.43
2023-03-11T01:44:47.868Z,81.47
2023-03-11T01:45:47.875Z,82.06
2023-03-11T01:46:47.956Z,82.37
2023-03-11T01:47:47.829Z,81.12
2023-03-11T01:48:47.825Z,81.33
2023-03-11T01:49:47.805Z,81.12
2023-03-11T01:50:47.833Z,81.96
2023-03-11T01:51:47.835Z,82.27
2023-03-11T01:52:47.796Z,81.96
2023-03-11T01:53:47.771Z,81.43
2023-03-11T01:54:49.566Z,81.96
2023-03-11T01:55:47.740Z,82.17
2023-03-11T01:56:47.761Z,82.58
2023-03-11T01:57:47.734Z,81.33
2023-03-11T01:58:47.707Z,81.09
2023-03-11T01:59:47.696Z,81.02
2023-03-11T02:00:47.693Z,80.40
2023-03-11T02:01:47.755Z,80.91
2023-03-11T02:02:47.761Z,79.98
2023-03-11T02:03:47.655Z,78.83
2023-03-11T02:04:47.662Z,79.04
2023-03-11T02:05:47.637Z,79.46
2023-03-11T02:06:47.658Z,78.63
2023-03-11T02:07:47.617Z,78.20
2023-03-11T02:08:47.607Z,77.93
2023-03-11T02:09:47.593Z,78.52
2023-03-11T02:10:47.589Z,78.20
2023-03-11T02:11:47.576Z,77.62
2023-03-11T02:12:47.578Z,78.45
2023-03-11T02:13:47.547Z,79.14
2023-03-11T02:14:47.541Z,78.97
2023-03-11T02:15:47.576Z,79.28
2023-03-11T02:16:47.522Z,78.56
2023-03-11T02:17:47.523Z,79.18
2023-03-11T02:18:47.508Z,79.49
2023-03-11T02:19:47.483Z,80.50
2023-03-11T02:20:47.495Z,79.46
2023-03-11T02:21:47.476Z,79.49
2023-03-11T02:22:47.489Z,78.87
2023-03-11T02:23:47.452Z,79.28
2023-03-11T02:24:47.446Z,79.91
2023-03-11T02:25:47.442Z,79.18
2023-03-11T02:26:47.417Z,78.34
2023-03-11T02:27:47.425Z,77.10
2023-03-11T02:28:47.403Z,77.83
2023-03-11T02:29:47.399Z,78.24
2023-03-11T02:30:47.385Z,77.51
2023-03-11T02:31:47.425Z,77.83
2023-03-11T02:32:47.418Z,77.31
2023-03-11T02:33:47.348Z,77.51
2023-03-11T02:34:47.340Z,77.93
2023-03-11T02:35:47.355Z,77.83
2023-03-11T02:36:47.314Z,78.14
2023-03-11T02:37:47.352Z,78.66
2023-03-11T02:38:47.289Z,78.45
2023-03-11T02:39:47.285Z,77.31
2023-03-11T02:40:47.265Z,77.10
2023-03-11T02:41:47.272Z,77.31
2023-03-11T02:42:47.272Z,78.31
2023-03-11T02:43:47.245Z,77.51
2023-03-11T02:44:47.224Z,76.57
2023-03-11T02:45:47.223Z,75.95
2023-03-11T02:46:47.242Z,74.18
2023-03-11T02:47:47.224Z,75.95
2023-03-11T02:48:47.179Z,77.20
2023-03-11T02:49:47.173Z,77.83
2023-03-11T02:50:47.155Z,77.97
2023-03-11T02:51:47.144Z,77.41
2023-03-11T02:52:47.157Z,75.95
2023-03-11T02:53:47.131Z,75.74
2023-03-11T02:54:47.119Z,76.57
2023-03-11T02:55:47.112Z,76.16
2023-03-11T02:56:47.091Z,75.32
2023-03-11T02:57:47.092Z,76.89
2023-03-11T02:58:47.068Z,76.89
2023-03-11T02:59:47.066Z,77.20
2023-03-11T03:00:47.077Z,76.89
2023-03-11T03:01:47.040Z,76.61
2023-03-11T03:02:47.035Z,76.99
2023-03-11T03:03:47.075Z,77.20
2023-03-11T03:04:47.006Z,78.34
2023-03-11T03:05:47.002Z,77.31
2023-03-11T03:06:46.985Z,77.51
2023-03-11T03:07:46.981Z,77.31
2023-03-11T03:08:46.961Z,77.41
2023-03-11T03:09:46.950Z,77.31
2023-03-11T03:10:46.936Z,77.31
2023-03-11T03:11:46.935Z,77.72
2023-03-11T03:12:46.935Z,77.55
2023-03-11T03:13:46.911Z,78.24
2023-03-11T03:14:46.895Z,78.34
2023-03-11T03:15:46.899Z,78.87
2023-03-11T03:16:47.008Z,78.49
2023-03-11T03:17:46.893Z,79.53
2023-03-11T03:18:46.855Z,77.97
2023-03-11T03:19:46.851Z,78.49
2023-03-11T03:20:46.827Z,78.69
2023-03-11T03:21:46.830Z,78.45
2023-03-11T03:22:46.815Z,76.26
2023-03-11T03:23:46.819Z,77.51
2023-03-11T03:24:46.796Z,77.72
2023-03-11T03:25:46.781Z,77.31
2023-03-11T03:26:46.770Z,77.41
2023-03-11T03:27:46.768Z,78.45
2023-03-11T03:28:46.757Z,78.14
2023-03-11T03:29:46.740Z,77.83
2023-03-11T03:30:46.735Z,78.03
2023-03-11T03:31:46.768Z,78.45
2023-03-11T03:32:46.756Z,78.17
2023-03-11T03:33:46.712Z,78.03
2023-03-11T03:34:46.681Z,77.83
2023-03-11T03:35:46.714Z,77.45
2023-03-11T03:36:46.680Z,78.91
2023-03-11T03:37:46.656Z,78.17
2023-03-11T03:38:47.823Z,78.49
2023-03-11T03:39:47.799Z,77.55
2023-03-11T03:40:47.780Z,77.86
2023-03-11T03:41:47.828Z,78.49
2023-03-11T03:42:47.776Z,77.86
2023-03-11T03:43:47.749Z,77.76
2023-03-11T03:44:47.747Z,78.28
2023-03-11T03:45:47.779Z,77.97
2023-03-11T03:46:47.731Z,78.07
2023-03-11T03:47:47.691Z,78.07
2023-03-11T03:48:47.729Z,77.97
2023-03-11T03:49:47.715Z,77.23
2023-03-11T03:50:47.703Z,77.76
2023-03-11T03:51:47.649Z,77.97
2023-03-11T03:52:47.675Z,78.28
2023-03-11T03:53:47.667Z,78.17
2023-03-11T03:54:47.665Z,77.62
2023-03-11T03:55:47.649Z,77.34
2023-03-11T03:56:47.645Z,78.28
2023-03-11T03:57:47.602Z,78.24
2023-03-11T03:58:47.626Z,78.91
2023-03-11T03:59:47.585Z,78.49
2023-03-11T04:00:47.586Z,78.38
2023-03-11T04:01:47.589Z,78.49
2023-03-11T04:02:47.580Z,78.38
2023-03-11T04:03:47.631Z,78.38
2023-03-11T04:04:47.552Z,78.59
2023-03-11T04:05:47.519Z,78.38
2023-03-11T04:06:47.526Z,78.38
2023-03-11T04:07:47.532Z,78.91
2023-03-11T04:08:47.556Z,78.28
2023-03-11T04:09:47.484Z,78.59
2023-03-11T04:10:47.483Z,77.76
2023-03-11T04:11:47.489Z,79.22
2023-03-11T04:12:47.466Z,78.59
2023-03-11T04:13:47.494Z,79.15
2023-03-11T04:14:47.474Z,78.80
2023-03-11T04:15:47.436Z,79.01
2023-03-11T04:16:47.464Z,78.94
2023-03-11T04:17:47.432Z,80.09
2023-03-11T04:18:47.445Z,79.74
2023-03-11T04:19:47.405Z,79.77
2023-03-11T04:20:47.382Z,79.43
2023-03-11T04:21:47.378Z,78.83
2023-03-11T04:22:47.375Z,79.46
2023-03-11T04:23:47.379Z,79.32
2023-03-11T04:24:47.332Z,78.91
2023-03-11T04:25:47.336Z,79.01
2023-03-11T04:26:47.334Z,80.05
2023-03-11T04:27:47.326Z,80.88
2023-03-11T04:28:47.326Z,79.32
2023-03-11T04:29:47.301Z,79.25
2023-03-11T04:30:47.346Z,80.16
2023-03-11T04:31:47.292Z,79.77
2023-03-11T04:32:47.323Z,79.84
2023-03-11T04:33:47.269Z,79.67
2023-03-11T04:34:47.242Z,79.46
2023-03-11T04:35:47.250Z,79.25
2023-03-11T04:36:47.226Z,81.51
2023-03-11T04:37:47.208Z,80.16
2023-03-11T04:38:47.204Z,81.30
2023-03-11T04:39:47.187Z,80.88
2023-03-11T04:40:47.184Z,80.88
2023-03-11T04:41:47.179Z,80.88
2023-03-11T04:42:47.188Z,81.51
2023-03-11T04:43:47.169Z,81.82
2023-03-11T04:44:47.127Z,81.23
2023-03-11T04:45:48.152Z,81.76
2023-03-11T04:46:47.127Z,81.76
2023-03-11T04:47:47.120Z,81.65
2023-03-11T04:48:47.114Z,82.07
2023-03-11T04:49:47.097Z,82.07
2023-03-11T04:50:47.123Z,81.45
2023-03-11T04:51:47.105Z,81.13
2023-03-11T04:52:47.077Z,81.96
2023-03-11T04:53:47.063Z,82.07
2023-03-11T04:54:47.082Z,81.55
2023-03-11T04:55:47.061Z,81.65
2023-03-11T04:56:47.035Z,81.65
2023-03-11T04:57:47.024Z,81.96
2023-03-11T04:58:47.015Z,82.17
2023-03-11T04:59:46.989Z,82.70
2023-03-11T05:00:46.996Z,82.10
2023-03-11T05:01:46.989Z,82.38
2023-03-11T05:02:46.966Z,81.96
2023-03-11T05:03:46.976Z,81.90
2023-03-11T05:04:46.980Z,81.90
2023-03-11T05:05:46.930Z,81.96
2023-03-11T05:06:46.919Z,82.17
2023-03-11T05:07:46.927Z,81.90
2023-03-11T05:08:46.933Z,81.45
2023-03-11T05:09:46.902Z,82.21
2023-03-11T05:10:46.886Z,82.17
2023-03-11T05:11:46.875Z,82.00
2023-03-11T05:12:46.861Z,81.38
2023-03-11T05:13:46.871Z,81.55
2023-03-11T05:14:46.837Z,81.48
2023-03-11T05:15:46.868Z,81.55
2023-03-11T05:16:46.825Z,82.21
2023-03-11T05:17:46.860Z,81.65
2023-03-11T05:18:46.837Z,82.00
2023-03-11T05:19:46.799Z,82.42
2023-03-11T05:20:46.793Z,83.36
2023-03-11T05:21:46.776Z,82.42
2023-03-11T05:22:46.783Z,82.00
2023-03-11T05:23:46.769Z,81.69
2023-03-11T05:24:46.786Z,82.00
2023-03-11T05:25:46.747Z,82.10
2023-03-11T05:26:48.522Z,81.59
2023-03-11T05:27:47.725Z,81.65
2023-03-11T05:28:46.708Z,81.23
2023-03-11T05:29:46.729Z,81.59
2023-03-11T05:30:46.684Z,82.10
2023-03-11T05:31:46.668Z,82.31
2023-03-11T05:32:46.683Z,82.31
2023-03-11T05:33:46.672Z,82.42
2023-03-11T05:34:46.665Z,82.00
2023-03-11T05:35:46.636Z,82.00
2023-03-11T05:36:46.621Z,81.27
2023-03-11T05:37:46.634Z,80.96
2023-03-11T05:38:46.610Z,81.76
2023-03-11T05:39:46.594Z,82.21
2023-03-11T05:40:46.570Z,83.47
2023-03-11T05:41:46.566Z,82.00
2023-03-11T05:42:46.556Z,82.00
2023-03-11T05:43:46.560Z,81.79
2023-03-11T05:44:46.560Z,81.38
2023-03-11T05:45:46.507Z,81.38
2023-03-11T05:46:46.590Z,82.42
2023-03-11T05:47:46.492Z,81.38
2023-03-11T05:48:46.513Z,81.79
2023-03-11T05:49:46.481Z,82.21
2023-03-11T05:50:46.477Z,82.31
2023-03-11T05:51:46.461Z,82.73
2023-03-11T05:52:46.455Z,83.47
2023-03-11T05:53:46.466Z,83.25
2023-03-11T05:54:46.433Z,83.47
2023-03-11T05:55:46.418Z,83.67
2023-03-11T05:56:46.417Z,83.57
2023-03-11T05:57:46.402Z,83.15
2023-03-11T05:58:46.417Z,82.42
2023-03-11T05:59:46.389Z,81.27
2023-03-11T06:00:46.383Z,82.00
2023-03-11T06:01:46.393Z,82.10
2023-03-11T06:02:46.359Z,82.42
2023-03-11T06:03:46.524Z,83.42
2023-03-11T06:04:46.476Z,82.00
2023-03-11T06:05:46.340Z,82.38
2023-03-11T06:06:46.318Z,82.80
2023-03-11T06:07:46.314Z,83.11
2023-03-11T06:08:46.292Z,83.42
2023-03-11T06:09:46.302Z,83.36
2023-03-11T06:10:48.554Z,82.80
2023-03-11T06:11:47.252Z,83.74
2023-03-11T06:12:46.253Z,83.84
2023-03-11T06:13:46.236Z,82.17
2023-03-11T06:14:46.251Z,82.59
2023-03-11T06:15:46.238Z,82.38
2023-03-11T06:16:46.227Z,82.34
2023-03-11T06:17:46.211Z,83.39
2023-03-11T06:18:46.207Z,83.70
2023-03-11T06:19:46.187Z,82.87
2023-03-11T06:20:46.165Z,83.49
2023-03-11T06:21:46.159Z,83.28
2023-03-11T06:22:46.159Z,83.39
2023-03-11T06:23:46.147Z,82.55
2023-03-11T06:24:46.137Z,83.59
2023-03-11T06:25:46.197Z,83.49
2023-03-11T06:26:46.112Z,83.45
2023-03-11T06:27:46.117Z,83.56
2023-03-11T06:28:46.081Z,82.45
2023-03-11T06:29:48.354Z,81.99
2023-03-11T06:30:46.104Z,81.58
2023-03-11T06:31:46.098Z,81.47
2023-03-11T06:32:46.080Z,81.30
2023-03-11T06:33:46.038Z,81.30
2023-03-11T06:34:46.034Z,81.47
2023-03-11T06:35:46.038Z,80.85
2023-03-11T06:36:46.018Z,81.30
2023-03-11T06:37:45.998Z,80.54
2023-03-11T06:38:45.989Z,81.47
2023-03-11T06:39:45.993Z,80.64
2023-03-11T06:40:45.987Z,81.99
2023-03-11T06:41:45.949Z,81.16
2023-03-11T06:42:45.966Z,81.37
2023-03-11T06:43:45.965Z,81.16
2023-03-11T06:44:45.959Z,81.16
2023-03-11T06:45:45.979Z,81.26
2023-03-11T06:46:45.909Z,81.47
2023-03-11T06:47:46.885Z,80.85
2023-03-11T06:48:45.884Z,81.16
2023-03-11T06:49:45.886Z,81.16
2023-03-11T06:50:48.422Z,81.16
2023-03-11T06:51:46.852Z,81.58
2023-03-11T06:52:45.857Z,79.80
2023-03-11T06:53:45.820Z,79.18
2023-03-11T06:54:45.828Z,78.97
2023-03-11T06:55:45.830Z,78.77
2023-03-11T06:56:45.801Z,79.08
2023-03-11T06:57:45.795Z,79.87
2023-03-11T06:58:45.797Z,79.91
2023-03-11T06:59:45.787Z,79.28
2023-03-11T07:00:45.811Z,80.74
2023-03-11T07:01:45.758Z,79.77
2023-03-11T07:02:45.746Z,80.19
2023-03-11T07:03:45.725Z,78.73
2023-03-11T07:04:45.734Z,79.98
2023-03-11T07:05:45.719Z,79.49
2023-03-11T07:06:45.689Z,79.35
2023-03-11T07:07:45.697Z,79.77
2023-03-11T07:08:45.680Z,79.14
2023-03-11T07:09:45.682Z,78.73
2023-03-11T07:10:45.637Z,79.77
2023-03-11T07:11:45.630Z,79.60
2023-03-11T07:12:45.612Z,78.87
2023-03-11T07:13:46.613Z,77.62
2023-03-11T07:14:45.610Z,78.10
2023-03-11T07:15:45.593Z,78.83
2023-03-11T07:16:45.601Z,79.49
2023-03-11T07:17:45.566Z,78.52
2023-03-11T07:18:45.563Z,78.77
2023-03-11T07:19:45.564Z,78.87
2023-03-11T07:20:45.545Z,79.49
2023-03-11T07:21:45.532Z,79.14
2023-03-11T07:22:45.524Z,79.28
2023-03-11T07:23:45.512Z,78.20
2023-03-11T07:24:45.510Z,79.14
2023-03-11T07:25:45.493Z,79.87
2023-03-11T07:26:45.489Z,79.77
2023-03-11T07:27:45.475Z,79.66
2023-03-11T07:28:45.489Z,78.83
2023-03-11T07:29:45.497Z,80.60
2023-03-11T07:30:45.443Z,80.71
2023-03-11T07:31:45.536Z,79.77
2023-03-11T07:32:45.444Z,79.66
2023-03-11T07:33:45.408Z,79.46
2023-03-11T07:34:45.428Z,79.14
2023-03-11T07:35:45.440Z,79.11
2023-03-11T07:36:45.443Z,79.11
2023-03-11T07:37:45.369Z,77.55
2023-03-11T07:38:45.369Z,78.52
2023-03-11T07:39:45.362Z,79.11
2023-03-11T07:40:45.341Z,78.69
2023-03-11T07:41:45.334Z,78.80
2023-03-11T07:42:45.326Z,78.28
2023-03-11T07:43:45.311Z,77.13
2023-03-11T07:44:45.308Z,77.69
2023-03-11T07:45:45.349Z,78.59
2023-03-11T07:46:45.270Z,79.35
2023-03-11T07:47:45.320Z,76.02
2023-03-11T07:48:45.259Z,76.75
2023-03-11T07:49:45.276Z,78.52
2023-03-11T07:50:45.305Z,78.17
2023-03-11T07:51:45.249Z,77.34
2023-03-11T07:52:45.266Z,76.72
2023-03-11T07:53:45.255Z,77.34
2023-03-11T07:54:45.241Z,76.78
2023-03-11T07:55:45.202Z,77.83
2023-03-11T07:56:45.214Z,78.14
2023-03-11T07:57:45.190Z,77.30
2023-03-11T07:58:45.910Z,76.26
2023-03-11T07:59:46.185Z,75.71
2023-03-11T08:00:45.170Z,73.63
2023-03-11T08:01:45.145Z,73.73
2023-03-11T08:02:45.199Z,74.46
2023-03-11T08:03:45.200Z,73.80
2023-03-11T08:04:45.131Z,73.32
2023-03-11T08:05:45.120Z,73.56
2023-03-11T08:06:45.108Z,74.67
2023-03-11T08:07:45.096Z,73.52
2023-03-11T08:08:45.070Z,73.94
2023-03-11T08:09:45.055Z,75.09
2023-03-11T08:10:45.044Z,74.67
2023-03-11T08:11:45.028Z,73.32
2023-03-11T08:12:45.060Z,73.07
2023-03-11T08:13:45.073Z,71.93
2023-03-11T08:14:45.050Z,72.31
2023-03-11T08:15:45.031Z,69.82
2023-03-11T08:16:45.017Z,71.17
2023-03-11T08:17:44.965Z,70.54
2023-03-11T08:18:44.973Z,71.69
2023-03-11T08:19:44.969Z,68.91
2023-03-11T08:20:44.946Z,71.20
2023-03-11T08:21:44.933Z,70.79
2023-03-11T08:22:57.321Z,70.72
2023-03-11T08:23:46.928Z,71.10
2023-03-11T08:24:44.927Z,70.68
2023-03-11T08:25:44.907Z,72.94
2023-03-11T08:26:44.896Z,71.86
2023-03-11T08:27:44.878Z,69.03
2023-03-11T08:28:44.864Z,70.79
2023-03-11T08:29:44.868Z,69.62
2023-03-11T08:30:44.880Z,68.34
2023-03-11T08:31:44.846Z,70.52
2023-03-11T08:32:44.870Z,70.10
2023-03-11T08:33:44.821Z,71.32
2023-03-11T08:34:44.866Z,69.11
2023-03-11T08:35:44.821Z,67.86
2023-03-11T08:36:44.788Z,64.86
2023-03-11T08:37:44.783Z,64.73
2023-03-11T08:38:44.806Z,65.14
2023-03-11T08:39:44.813Z,65.90
2023-03-11T08:40:44.754Z,65.93
2023-03-11T08:41:44.751Z,66.44
2023-03-11T08:42:44.751Z,64.61
2023-03-11T08:43:44.752Z,64.72
2023-03-11T08:44:45.730Z,66.47
2023-03-11T08:45:44.699Z,66.30
2023-03-11T08:46:44.757Z,64.95
2023-03-11T08:47:44.676Z,64.85
2023-03-11T08:48:44.682Z,65.47
2023-03-11T08:49:44.658Z,65.78
2023-03-11T08:50:54.009Z,66.44
2023-03-11T08:51:46.649Z,65.63
2023-03-11T08:52:44.627Z,66.36
2023-03-11T08:53:44.625Z,67.61
2023-03-11T08:54:44.607Z,65.63
2023-03-11T08:55:44.614Z,67.37
2023-03-11T08:56:44.639Z,66.12
2023-03-11T08:57:44.594Z,64.56
2023-03-11T08:58:44.569Z,63.81
2023-03-11T08:59:44.569Z,61.43
2023-03-11T09:00:44.571Z,66.51
2023-03-11T09:01:44.559Z,65.44
2023-03-11T09:02:44.587Z,65.34
2023-03-11T09:03:44.561Z,63.47
2023-03-11T09:04:44.542Z,63.51
2023-03-11T09:05:44.576Z,61.80
2023-03-11T09:06:44.510Z,60.87
2023-03-11T09:07:44.486Z,62.11
2023-03-11T09:08:44.480Z,60.93
2023-03-11T09:09:44.466Z,61.83
2023-03-11T09:10:44.474Z,62.08
2023-03-11T09:11:44.449Z,60.68
2023-03-11T09:12:44.440Z,59.55
2023-03-11T09:13:44.418Z,57.79
2023-03-11T09:14:44.412Z,52.62
2023-03-11T09:15:44.416Z,53.44
2023-03-11T09:16:44.398Z,56.31
2023-03-11T09:17:44.390Z,58.51
2023-03-11T09:18:44.377Z,58.02
2023-03-11T09:19:44.386Z,57.27
2023-03-11T09:20:44.372Z,56.10
2023-03-11T09:21:44.353Z,56.21
2023-03-11T09:22:44.345Z,54.45
2023-03-11T09:23:44.757Z,58.97
2023-03-11T09:24:45.325Z,58.40
2023-03-11T09:25:44.328Z,59.30
2023-03-11T09:26:44.316Z,57.11
2023-03-11T09:27:44.304Z,55.05
2023-03-11T09:28:44.299Z,56.08
2023-03-11T09:29:44.279Z,56.21
2023-03-11T09:30:44.273Z,55.20
2023-03-11T09:31:44.283Z,56.00
2023-03-11T09:32:44.337Z,54.14
2023-03-11T09:33:44.245Z,56.96
2023-03-11T09:34:44.227Z,57.73
2023-03-11T09:35:44.240Z,57.76
2023-03-11T09:36:44.209Z,58.51
2023-03-11T09:37:44.205Z,60.30
2023-03-11T09:38:44.196Z,60.22
2023-03-11T09:39:44.193Z,59.42
2023-03-11T09:40:46.888Z,56.83
2023-03-11T09:41:57.193Z,59.83
2023-03-11T09:42:46.166Z,60.32
2023-03-11T09:43:44.138Z,60.56
2023-03-11T09:44:44.129Z,60.04
2023-03-11T09:45:44.133Z,60.27
2023-03-11T09:46:44.142Z,60.66
2023-03-11T09:47:44.122Z,60.87
2023-03-11T09:48:44.086Z,59.60
2023-03-11T09:49:44.081Z,59.85
2023-03-11T09:50:44.087Z,59.15
2023-03-11T09:51:44.064Z,56.49
2023-03-11T09:52:44.057Z,54.87
2023-03-11T09:53:44.037Z,56.13
2023-03-11T09:54:45.041Z,52.46
2023-03-11T09:55:44.032Z,54.46
2023-03-11T09:56:44.601Z,53.77
2023-03-11T09:57:44.998Z,51.75
2023-03-11T09:58:43.992Z,50.60
2023-03-11T09:59:44.744Z,50.17
2023-03-11T10:00:44.004Z,50.09
2023-03-11T10:01:44.046Z,50.73
2023-03-11T10:02:44.117Z,48.55
2023-03-11T10:03:43.977Z,49.00
2023-03-11T10:04:43.942Z,50.56
2023-03-11T10:05:43.952Z,51.64
2023-03-11T10:06:43.947Z,50.76
2023-03-11T10:07:43.929Z,50.93
2023-03-11T10:08:43.898Z,52.83
2023-03-11T10:09:43.938Z,53.04
2023-03-11T10:10:43.909Z,54.30
2023-03-11T10:11:43.894Z,52.91
2023-03-11T10:12:43.889Z,55.10
2023-03-11T10:13:43.887Z,56.37
2023-03-11T10:14:43.923Z,57.29
2023-03-11T10:15:43.872Z,57.19
2023-03-11T10:16:43.929Z,55.00
2023-03-11T10:17:43.844Z,52.93
2023-03-11T10:18:43.877Z,53.76
2023-03-11T10:19:43.841Z,55.64
2023-03-11T10:20:43.827Z,55.41
2023-03-11T10:21:43.816Z,55.20
2023-03-11T10:22:58.774Z,56.65
2023-03-11T10:23:44.821Z,57.57
2023-03-11T10:24:43.790Z,56.85
2023-03-11T10:25:43.820Z,57.06
2023-03-11T10:26:43.778Z,57.45
2023-03-11T10:27:43.754Z,56.29
2023-03-11T10:28:43.768Z,52.78
2023-03-11T10:29:43.751Z,56.80
2023-03-11T10:30:43.724Z,58.14
2023-03-11T10:31:43.764Z,55.57
2023-03-11T10:32:43.819Z,54.64
2023-03-11T10:33:45.856Z,56.08
2023-03-11T10:34:43.693Z,56.26
2023-03-11T10:35:43.709Z,55.26
2023-03-11T10:36:43.671Z,56.62
2023-03-11T10:37:49.860Z,58.11
2023-03-11T10:38:45.643Z,57.37
2023-03-11T10:39:43.655Z,57.18
2023-03-11T10:40:43.671Z,58.01
2023-03-11T10:41:43.613Z,56.57
2023-03-11T10:42:43.638Z,55.98
2023-03-11T10:43:43.626Z,56.62
2023-03-11T10:44:43.617Z,57.57
2023-03-11T10:45:43.577Z,54.38
2023-03-11T10:46:43.656Z,54.48
2023-03-11T10:47:43.604Z,58.50
2023-03-11T10:48:43.572Z,56.88
2023-03-11T10:49:43.535Z,56.16
2023-03-11T10:50:43.532Z,54.30
2023-03-11T10:51:43.530Z,55.20
2023-03-11T10:52:43.491Z,56.67
2023-03-11T10:53:43.501Z,56.98
2023-03-11T10:54:45.246Z,56.85
2023-03-11T10:55:43.517Z,56.65
2023-03-11T10:56:43.470Z,56.23
2023-03-11T10:57:43.487Z,56.75
2023-03-11T10:58:43.463Z,56.13
2023-03-11T10:59:43.466Z,53.03
2023-03-11T11:00:43.452Z,54.48
2023-03-11T11:01:43.482Z,56.31
2023-03-11T11:02:43.894Z,56.83
2023-03-11T11:03:44.414Z,53.94
2023-03-11T11:04:43.382Z,52.29
2023-03-11T11:05:43.369Z,53.19
2023-03-11T11:06:43.417Z,50.90
2023-03-11T11:07:43.374Z,55.74
2023-03-11T11:08:43.351Z,52.32
2023-03-11T11:09:43.325Z,51.04
2023-03-11T11:10:43.313Z,54.41
2023-03-11T11:11:43.329Z,52.84
2023-03-11T11:12:43.339Z,50.78
2023-03-11T11:13:43.289Z,49.65
2023-03-11T11:14:43.306Z,50.68
2023-03-11T11:15:43.272Z,52.64
2023-03-11T11:16:43.272Z,53.56
2023-03-11T11:17:43.229Z,50.83
2023-03-11T11:18:43.233Z,53.79
2023-03-11T11:19:43.207Z,53.30
2023-03-11T11:20:43.194Z,50.83
2023-03-11T11:21:43.203Z,49.74
2023-03-11T11:22:43.183Z,54.38
2023-03-11T11:23:43.200Z,53.66
2023-03-11T11:24:43.155Z,52.81
2023-03-11T11:25:43.148Z,52.48
2023-03-11T11:26:43.138Z,48.85
2023-03-11T11:27:43.113Z,46.08
2023-03-11T11:28:43.118Z,52.22
2023-03-11T11:29:43.141Z,51.71
2023-03-11T11:30:43.143Z,51.73
2023-03-11T11:31:43.104Z,52.17
2023-03-11T11:32:43.092Z,51.96
2023-03-11T11:33:43.081Z,50.93
2023-03-11T11:34:43.082Z,51.26
2023-03-11T11:35:43.085Z,51.86
2023-03-11T11:36:43.108Z,50.83
2023-03-11T11:37:43.076Z,51.98
2023-03-11T11:38:43.027Z,52.40
2023-03-11T11:39:43.016Z,48.90
2023-03-11T11:41:00.250Z,54.07
2023-03-11T11:41:43.041Z,51.10
2023-03-11T11:42:42.991Z,48.94
2023-03-11T11:43:43.022Z,52.96
2023-03-11T11:44:42.968Z,55.28
2023-03-11T11:45:43.050Z,54.17
2023-03-11T11:46:42.955Z,53.96
2023-03-11T11:47:42.930Z,54.27
2023-03-11T11:48:42.916Z,56.67
2023-03-11T11:49:42.945Z,55.13
2023-03-11T11:50:42.911Z,51.82
2023-03-11T11:51:42.899Z,52.03
2023-03-11T11:52:45.064Z,54.27
2023-03-11T11:53:42.897Z,54.58
2023-03-11T11:54:42.855Z,51.70
2023-03-11T11:55:42.877Z,55.10
2023-03-11T11:56:42.827Z,54.25
2023-03-11T11:57:42.832Z,53.94
2023-03-11T11:58:42.824Z,54.90
2023-03-11T11:59:58.045Z,52.19
2023-03-11T12:00:42.832Z,54.58
2023-03-11T12:01:42.835Z,54.27
2023-03-11T12:02:42.796Z,56.03
2023-03-11T12:03:42.793Z,55.10
2023-03-11T12:04:42.797Z,54.58
2023-03-11T12:05:42.884Z,56.23
2023-03-11T12:06:42.763Z,53.58
2023-03-11T12:07:42.734Z,52.83
2023-03-11T12:08:42.751Z,55.41
2023-03-11T12:09:42.762Z,56.37
2023-03-11T12:10:42.705Z,54.30
2023-03-11T12:11:42.697Z,54.38
2023-03-11T12:12:42.706Z,54.48
2023-03-11T12:13:42.746Z,56.23
2023-03-11T12:14:42.661Z,55.43
2023-03-11T12:15:42.697Z,54.69
2023-03-11T12:16:42.646Z,54.17
2023-03-11T12:17:42.653Z,49.00
2023-03-11T12:18:42.644Z,50.24
2023-03-11T12:19:42.601Z,48.49
2023-03-11T12:20:42.661Z,48.74
2023-03-11T12:21:42.617Z,53.19
2023-03-11T12:22:42.600Z,52.91
2023-03-11T12:23:42.595Z,48.91
2023-03-11T12:24:42.571Z,53.03
2023-03-11T12:25:42.556Z,56.37
2023-03-11T12:26:42.582Z,55.64
2023-03-11T12:27:42.605Z,55.10
2023-03-11T12:28:42.539Z,54.30
2023-03-11T12:29:43.319Z,55.26
2023-03-11T12:30:43.523Z,57.53
2023-03-11T12:31:42.666Z,57.45
2023-03-11T12:32:42.700Z,59.20
2023-03-11T12:33:42.624Z,58.07
2023-03-11T12:34:42.572Z,58.51
2023-03-11T12:35:42.555Z,54.79
2023-03-11T12:36:42.496Z,56.37
2023-03-11T12:37:42.475Z,57.48
2023-03-11T12:38:43.439Z,58.51
2023-03-11T12:39:42.477Z,56.44
2023-03-11T12:40:42.493Z,56.96
2023-03-11T12:41:42.451Z,54.66
2023-03-11T12:42:42.450Z,55.05
2023-03-11T12:43:42.450Z,53.29
2023-03-11T12:44:42.452Z,53.08
2023-03-11T12:45:42.480Z,57.42
2023-03-11T12:46:42.443Z,54.32
2023-03-11T12:47:42.438Z,55.95
2023-03-11T12:48:42.428Z,58.04
2023-03-11T12:49:42.339Z,56.57
2023-03-11T12:50:42.367Z,56.60
2023-03-11T12:51:42.369Z,55.85
2023-03-11T12:52:42.341Z,55.95
2023-03-11T12:53:42.306Z,56.16